Neligh, NE

12:53 AM CDT on August 29, 2014 (GMT -0500)
Stefan Memorial | Change Station
CLOSE
Current Station
Airport
Location: Norfolk,
Elevation: 1549 ft
Nearby Weather Stations

Elev 1549 ft 41.99 °N, 97.44 °W | Updated 5 minutes ago

Mostly Cloudy
Mostly Cloudy
71 °F
Feels Like 71 °F
N
4
Wind Variable Wind from West

Today
High -- | Low -- °F
--% Chance of Precip.
Yesterday
High -- | Low -- °F
Precip. -- in
6:54 AM 8:10 PM
Waxing Crescent, 12% visible
Pressure 29.82 in
Visibility 9.0 miles
Clouds Mostly Cloudy 1600 ft
Mostly Cloudy 2900 ft
Mostly Cloudy 6000 ft
Dew Point 68 °F
Humidity 90%
Rainfall 0.00 in
Snow Depth Not available.
UV 0 out of 12
Pollen 2.00 out of 12
Air Quality Not available.
Flu Activity Not available.
SPECI KOFK 290548Z AUTO 28003KT 9SM BKN016 BKN029 BKN060 22/20 A2982 RMK AO2 LTG DSNT SE T02170200

More Conditions Fewer Conditions

Pressure 29.82 in
Visibility 9.0 miles
Clouds Mostly Cloudy 1600 ft
Mostly Cloudy 2900 ft
Mostly Cloudy 6000 ft
Dew Point 68 °F
Humidity 90%
Rainfall 0.00 in
Snow Depth Not available.
UV 0 out of 12
Pollen 2.00 out of 12
Air Quality Not available.
Flu Activity Not available.
SPECI KOFK 290548Z AUTO 28003KT 9SM BKN016 BKN029 BKN060 22/20 A2982 RMK AO2 LTG DSNT SE T02170200

More Conditions Fewer Conditions

10-Day Weather Forecast

Almanac

Astronomy

Aug. 29, 2014 Rise Set
Actual Time 6:54 AM CDT 8:10 PM CDT
Civil Twilight 6:25 AM CDT 8:39 PM CDT
Nautical Twilight 5:50 AM CDT 9:14 PM CDT
Astronomical Twilight 5:13 AM CDT 9:50 PM CDT
Moon 10:50 AM CDT 10:04 PM CDT
Length of Visible Light 14h 14m
Length of Day
13h 16m
Tomorrow will be 2m 42s shorter.
Waxing Crescent, 12% of the Moon is Illuminated
Today
Waxing Crescent
Sep 2
First Quarter
Sep 8
Full
Sep 15
Last Quarter
Sep 24
New

Today's Extremes

State Highs State Lows

Community

WunderPhotos

Upload Photos

1,748,197 photos uploaded!

Nearby

Snow Depth

Station Depth Elevation
No new snow has been reported.

Earthquake Activity

City Distance Mag. Time & Date
No recent earthquake activity has been reported nearby.
Minimum magnitude displayed is 2.5.

Coastal Water Temperatures

Place Temperature
No Stations Reporting

Nearby Weather Stations